Time;durP1;ratioP1;P1;durP2;ratioP2;P2;SDS_P1;SDS_P2;PMS_P1;PMS_P2;Temp;Humidity;BMP_temperature;BMP_pressure;BME280_temperature;BME280_humidity;BME280_pressure;Samples;Min_cycle;Max_cycle;Signal;HPM_P1;HPM_P2
2023/08/14 00:00:48;;;;;;;14.75;8.70;;;;;;;13.19;100.00;101362.00;10521372;28;20075;-80
2023/08/14 00:05:49;;;;;;;16.23;9.95;;;;;;;13.11;100.00;101365.13;10523932;28;20420;-80
2023/08/14 00:10:49;;;;;;;18.08;9.80;;;;;;;13.06;100.00;101363.19;10521778;28;20425;-80
2023/08/14 00:15:50;;;;;;;10.48;8.45;;;;;;;13.03;100.00;101362.13;10523806;28;20039;-79
2023/08/14 00:20:50;;;;;;;13.55;9.40;;;;;;;12.97;100.00;101356.59;10519531;28;20127;-80
2023/08/14 00:25:51;;;;;;;14.70;8.13;;;;;;;12.87;100.00;101350.94;10523020;28;20061;-79
2023/08/14 00:30:51;;;;;;;13.57;9.30;;;;;;;12.83;100.00;101349.00;10521383;28;20043;-80
2023/08/14 00:35:52;;;;;;;17.35;10.45;;;;;;;12.74;100.00;101345.94;10504810;28;20044;-80
2023/08/14 00:40:52;;;;;;;13.98;9.55;;;;;;;12.68;100.00;101350.91;10503156;28;20028;-80
2023/08/14 00:45:55;;;;;;;29.17;11.55;;;;;;;12.70;100.00;101344.91;10522618;28;20409;-80
2023/08/14 00:50:56;;;;;;;14.40;10.60;;;;;;;12.75;100.00;101331.97;10521358;28;20070;-80
2023/08/14 00:55:57;;;;;;;19.15;9.77;;;;;;;12.83;100.00;101337.59;10504117;28;20988;-80
2023/08/14 01:00:57;;;;;;;17.30;10.90;;;;;;;12.80;100.00;101334.84;10502736;28;20097;-80
2023/08/14 01:05:58;;;;;;;19.52;13.13;;;;;;;12.77;100.00;101333.88;10505150;28;20425;-80
2023/08/14 01:11:02;;;;;;;16.50;10.73;;;;;;;12.77;100.00;101333.88;10522138;28;20040;-79
2023/08/14 01:16:09;;;;;;;28.58;13.65;;;;;;;12.70;100.00;101339.66;10529340;28;20044;-80
2023/08/14 01:21:17;;;;;;;22.42;13.75;;;;;;;12.53;100.00;101333.59;10509177;28;20056;-80
2023/08/14 01:26:18;;;;;;;17.08;11.35;;;;;;;12.47;100.00;101326.34;10529120;28;20127;-80
2023/08/14 01:31:18;;;;;;;22.90;12.48;;;;;;;12.51;100.00;101318.63;10520339;28;20516;-80
2023/08/14 01:36:39;;;;;;;25.85;13.52;;;;;;;12.50;100.00;101306.31;10530114;28;20059;-79
2023/08/14 01:41:43;;;;;;;19.73;11.65;;;;;;;12.38;100.00;101309.25;10521963;28;20036;-79
2023/08/14 01:46:43;;;;;;;20.52;10.45;;;;;;;12.27;100.00;101314.00;10530183;28;20063;-80
2023/08/14 01:51:45;;;;;;;14.20;9.40;;;;;;;12.18;100.00;101304.88;10499890;28;20132;-80
2023/08/14 01:56:46;;;;;;;11.73;9.45;;;;;;;12.08;100.00;101293.84;10529419;28;20487;-79
2023/08/14 02:01:46;;;;;;;16.90;11.25;;;;;;;12.03;100.00;101285.75;10529373;28;20047;-79
2023/08/14 02:06:47;;;;;;;14.63;9.23;;;;;;;12.02;100.00;101291.84;10527878;28;20140;-79
2023/08/14 02:11:47;;;;;;;20.55;13.25;;;;;;;12.02;100.00;101282.22;10527720;28;20453;-79
2023/08/14 02:16:48;;;;;;;14.63;11.50;;;;;;;11.99;100.00;101281.16;10528772;28;20067;-80
2023/08/14 02:21:49;;;;;;;20.45;12.40;;;;;;;11.97;100.00;101281.06;10526616;28;20036;-79
2023/08/14 02:26:49;;;;;;;19.25;11.25;;;;;;;12.04;100.00;101274.44;10528108;28;20043;-80
2023/08/14 02:31:50;;;;;;;15.60;9.82;;;;;;;11.95;100.00;101266.09;10526563;28;20407;-80
2023/08/14 02:36:51;;;;;;;14.00;12.00;;;;;;;11.89;100.00;101267.59;10528689;28;20040;-80
2023/08/14 02:41:51;;;;;;;17.13;11.70;;;;;;;11.78;100.00;101265.25;10526870;28;20040;-79
2023/08/14 02:46:53;;;;;;;24.40;12.57;;;;;;;11.72;100.00;101258.88;10526753;28;20044;-79
2023/08/14 02:51:54;;;;;;;21.85;15.43;;;;;;;11.80;100.00;101276.72;10525379;28;20093;-79
2023/08/14 02:56:54;;;;;;;17.70;12.93;;;;;;;11.73;100.00;101271.19;10516696;28;21641;-79
2023/08/14 03:01:55;;;;;;;22.73;13.88;;;;;;;11.78;100.00;101263.56;10538334;28;20172;-79
2023/08/14 03:06:55;;;;;;;23.80;14.57;;;;;;;11.74;100.00;101279.94;10525324;28;20046;-79
2023/08/14 03:11:56;;;;;;;26.98;12.80;;;;;;;11.72;100.00;101274.63;10526390;28;20044;-79
2023/08/14 03:16:56;;;;;;;24.98;13.80;;;;;;;11.74;100.00;101275.59;10526175;28;20119;-80
2023/08/14 03:21:57;;;;;;;23.05;14.00;;;;;;;11.65;100.00;101267.28;10524051;28;20050;-79
2023/08/14 03:26:57;;;;;;;21.70;13.25;;;;;;;11.46;100.00;101261.13;10525045;28;20377;-79
2023/08/14 03:31:58;;;;;;;24.27;12.55;;;;;;;11.38;100.00;101246.72;10516604;28;20032;-78
2023/08/14 03:36:58;;;;;;;15.75;10.77;;;;;;;11.37;100.00;101234.44;10523540;28;20040;-79
2023/08/14 03:41:59;;;;;;;22.23;11.45;;;;;;;11.39;100.00;101243.28;10522283;28;20042;-78
2023/08/14 03:46:59;;;;;;;17.83;12.07;;;;;;;11.45;100.00;101250.56;10506747;28;20044;-78
2023/08/14 03:52:00;;;;;;;26.23;11.02;;;;;;;11.42;100.00;101253.91;10524307;28;20395;-78
2023/08/14 03:57:01;;;;;;;20.77;12.77;;;;;;;11.41;100.00;101254.75;10521123;28;20040;-78
2023/08/14 04:02:01;;;;;;;22.42;14.15;;;;;;;11.36;100.00;101266.72;10521216;28;20044;-78
2023/08/14 04:07:02;;;;;;;27.67;13.00;;;;;;;11.37;100.00;101259.75;10517660;28;20060;-79
2023/08/14 04:12:02;;;;;;;18.45;12.63;;;;;;;11.39;100.00;101248.53;10520505;28;20073;-78
2023/08/14 04:17:03;;;;;;;25.52;12.82;;;;;;;11.34;100.00;101252.63;10521095;28;20047;-79
2023/08/14 04:22:04;;;;;;;28.73;12.65;;;;;;;11.25;100.00;101255.69;10519796;28;20125;-79
2023/08/14 04:27:04;;;;;;;21.35;12.65;;;;;;;11.26;100.00;101238.25;10519355;28;20036;-79
2023/08/14 04:32:05;;;;;;;25.30;13.48;;;;;;;11.30;100.00;101246.34;10518497;28;20044;-79
2023/08/14 04:37:05;;;;;;;21.65;13.18;;;;;;;11.36;100.00;101218.66;10518943;28;20380;-80
2023/08/14 04:42:06;;;;;;;18.77;14.88;;;;;;;11.41;100.00;101232.88;10520062;28;20044;-79
2023/08/14 04:47:06;;;;;;;24.23;12.55;;;;;;;11.48;100.00;101216.66;10526965;28;20404;-79
2023/08/14 04:52:07;;;;;;;19.10;11.18;;;;;;;11.50;100.00;101220.25;10529826;28;20036;-79
2023/08/14 04:57:07;;;;;;;24.38;12.93;;;;;;;11.57;100.00;101213.56;10498486;28;20048;-78
2023/08/14 05:02:08;;;;;;;23.90;11.85;;;;;;;11.66;100.00;101221.88;10528849;28;20032;-78
2023/08/14 05:07:09;;;;;;;18.95;11.02;;;;;;;11.83;100.00;101203.44;10524621;28;20042;-79
2023/08/14 05:12:09;;;;;;;21.85;12.15;;;;;;;12.08;100.00;101199.38;10527068;28;20414;-78
2023/08/14 05:17:10;;;;;;;24.50;14.77;;;;;;;12.40;100.00;101198.28;10505615;28;20135;-78
2023/08/14 05:22:10;;;;;;;19.40;11.32;;;;;;;12.68;100.00;101203.84;10515276;28;20040;-79
2023/08/14 05:27:11;;;;;;;18.00;10.35;;;;;;;12.84;100.00;101194.94;10527134;28;20149;-78
2023/08/14 05:32:11;;;;;;;29.50;19.67;;;;;;;12.93;100.00;101190.94;10529586;28;20391;-78
2023/08/14 05:37:12;;;;;;;18.80;12.65;;;;;;;13.11;100.00;101192.56;10533809;28;20044;-79
2023/08/14 05:42:15;;;;;;;16.77;9.20;;;;;;;13.26;100.00;101202.84;10527662;28;20100;-79
2023/08/14 05:47:15;;;;;;;16.83;10.85;;;;;;;13.42;100.00;101200.91;10511519;28;20036;-78
2023/08/14 05:52:16;;;;;;;13.07;8.65;;;;;;;13.61;100.00;101200.81;10519544;28;20072;-80
2023/08/14 05:57:16;;;;;;;14.52;8.45;;;;;;;13.75;100.00;101205.72;10520619;28;20040;-78
2023/08/14 06:02:17;;;;;;;12.75;8.77;;;;;;;13.77;100.00;101211.97;10526561;28;20036;-78
2023/08/14 06:07:17;;;;;;;22.63;8.35;;;;;;;13.83;100.00;101219.19;10513391;28;20040;-78
2023/08/14 06:12:18;;;;;;;17.48;11.75;;;;;;;13.88;100.00;101231.69;10530297;28;20043;-78
2023/08/14 06:17:18;;;;;;;14.60;9.05;;;;;;;13.93;100.00;101240.66;10523487;28;20044;-79
2023/08/14 06:22:19;;;;;;;13.23;7.82;;;;;;;14.01;100.00;101243.59;10526382;28;20044;-79
2023/08/14 06:27:20;;;;;;;15.47;9.10;;;;;;;14.06;100.00;101236.78;10508399;28;20067;-79
2023/08/14 06:32:21;;;;;;;13.45;8.00;;;;;;;14.21;100.00;101239.13;10523566;28;20042;-80
2023/08/14 06:37:22;;;;;;;15.18;8.13;;;;;;;14.38;100.00;101236.25;10517815;28;20047;-79
2023/08/14 06:42:22;;;;;;;15.40;8.98;;;;;;;14.53;100.00;101226.28;10492213;28;20043;-80
2023/08/14 06:47:23;;;;;;;21.85;11.52;;;;;;;14.74;100.00;101219.13;10526750;28;20049;-78
2023/08/14 06:52:23;;;;;;;15.63;8.68;;;;;;;14.98;100.00;101206.81;10525832;28;20119;-78
2023/08/14 06:57:24;;;;;;;18.27;10.52;;;;;;;15.43;100.00;101207.44;10529099;28;20040;-79
2023/08/14 07:02:24;;;;;;;12.65;7.97;;;;;;;15.83;100.00;101194.66;10525126;28;20043;-78
2023/08/14 07:07:25;;;;;;;16.02;6.82;;;;;;;16.87;100.00;101193.28;10523017;28;20498;-78
2023/08/14 07:12:26;;;;;;;13.35;7.13;;;;;;;18.04;100.00;101185.56;10525045;28;20530;-78
2023/08/14 07:17:26;;;;;;;9.20;5.20;;;;;;;21.42;100.00;101160.50;10522513;28;20032;-79
2023/08/14 07:22:27;;;;;;;6.60;3.97;;;;;;;24.77;100.00;101040.34;10519481;28;20507;-76
2023/08/14 07:27:28;;;;;;;10.97;4.00;;;;;;;26.24;100.00;101216.63;10522707;28;20684;-76
2023/08/14 07:32:28;;;;;;;9.32;3.45;;;;;;;25.06;100.00;101213.22;10505687;28;20036;-77
2023/08/14 07:37:29;;;;;;;12.47;3.50;;;;;;;23.20;100.00;101197.69;10507860;28;20063;-76
2023/08/14 07:42:29;;;;;;;7.87;2.93;;;;;;;25.17;100.00;101210.44;10504485;28;20491;-77
2023/08/14 07:47:30;;;;;;;8.60;2.47;;;;;;;26.78;100.00;101223.06;10511125;28;20054;-77
2023/08/14 07:52:30;;;;;;;6.05;2.38;;;;;;;27.94;100.00;101229.28;10521294;28;20050;-78
2023/08/14 07:57:31;;;;;;;7.53;2.72;;;;;;;28.40;100.00;101246.31;10523749;28;20488;-79
2023/08/14 08:02:31;;;;;;;;;;;;;;;28.46;100.00;101277.59;10505452;28;20043;-79
2023/08/14 08:07:32;;;;;;;5.07;2.43;;;;;;;28.78;100.00;101281.44;10522399;28;19919;-77
2023/08/14 08:12:32;;;;;;;;;;;;;;;29.80;99.19;101266.47;10514666;28;20547;-76
2023/08/14 08:17:33;;;;;;;6.00;2.37;;;;;;;29.45;89.81;101272.72;10513712;28;19920;-74
2023/08/14 08:22:33;;;;;;;;;;;;;;;30.07;87.69;101267.53;10517528;28;20177;-75
2023/08/14 08:27:35;;;;;;;4.97;1.70;;;;;;;30.57;78.06;101260.72;10518818;28;19920;-79
2023/08/14 08:32:35;;;;;;;7.18;3.17;;;;;;;30.59;84.97;101258.88;10518500;28;20040;-78
2023/08/14 08:37:36;;;;;;;9.75;2.33;;;;;;;30.83;84.28;101253.66;10514348;28;20063;-75
2023/08/14 08:42:36;;;;;;;6.43;1.80;;;;;;;30.77;83.77;101244.81;10517077;28;20166;-76
2023/08/14 08:47:38;;;;;;;4.93;1.90;;;;;;;31.26;66.37;101241.50;10513272;28;20458;-77
2023/08/14 08:52:38;;;;;;;7.05;2.20;;;;;;;31.75;63.79;101236.25;10520343;28;20029;-77
2023/08/14 08:57:39;;;;;;;4.30;1.70;;;;;;;31.86;57.16;101230.44;10517445;28;20040;-77
2023/08/14 09:02:39;;;;;;;8.75;1.58;;;;;;;31.72;56.93;101224.63;10518491;28;20127;-79
2023/08/14 09:07:40;;;;;;;2.83;1.35;;;;;;;31.35;67.53;101219.56;10519866;28;20508;-77
2023/08/14 09:12:40;;;;;;;7.25;2.63;;;;;;;31.93;58.96;101229.28;10483709;28;20391;-79
2023/08/14 09:17:41;;;;;;;9.38;1.90;;;;;;;31.72;58.16;101235.44;10508878;28;20123;-78
2023/08/14 09:22:42;;;;;;;6.50;1.40;;;;;;;32.31;55.30;101228.84;10517076;28;20040;-77
2023/08/14 09:27:42;;;;;;;6.10;2.05;;;;;;;32.11;53.98;101229.53;10523268;28;20050;-78
2023/08/14 09:32:43;;;;;;;5.32;2.63;;;;;;;31.70;63.13;101226.50;10510938;28;20040;-80
2023/08/14 09:37:43;;;;;;;6.25;2.55;;;;;;;32.11;66.43;101226.84;10511472;28;20060;-80
2023/08/14 09:42:44;;;;;;;;;;;;;;;32.36;58.14;101236.78;10490045;28;20096;-79
2023/08/14 09:47:45;;;;;;;7.00;2.47;;;;;;;32.54;48.73;101218.94;10507827;28;19928;-79
2023/08/14 09:52:46;;;;;;;4.65;2.28;;;;;;;32.38;58.34;101221.34;10523694;28;20052;-80
2023/08/14 09:57:47;;;;;;;4.03;1.75;;;;;;;32.53;47.32;101214.47;10491790;28;20184;-78
2023/08/14 10:02:48;;;;;;;4.25;1.45;;;;;;;32.37;51.19;101216.88;10527041;28;20107;-80
2023/08/14 10:07:48;;;;;;;3.15;1.13;;;;;;;32.83;55.45;101206.06;10514655;28;20067;-78
2023/08/14 10:13:04;;;;;;;3.20;1.30;;;;;;;32.75;47.25;101195.50;10492994;28;20047;-77
2023/08/14 10:18:07;;;;;;;5.40;1.50;;;;;;;32.20;55.55;101199.44;10509651;28;20044;-77
2023/08/14 10:23:08;;;;;;;3.85;1.63;;;;;;;32.83;50.05;101187.09;10509021;28;20051;-79
2023/08/14 10:28:09;;;;;;;5.03;2.35;;;;;;;33.59;52.28;101183.94;10494188;28;20124;-80
2023/08/14 10:33:09;;;;;;;7.00;1.75;;;;;;;33.45;49.71;101178.22;10507595;28;20036;-80
2023/08/14 10:38:10;;;;;;;4.57;1.98;;;;;;;33.49;46.20;101178.03;10508918;28;20058;-79
2023/08/14 10:43:10;;;;;;;3.05;1.25;;;;;;;33.29;43.56;101162.59;10509982;28;20093;-82
2023/08/14 10:48:12;;;;;;;8.63;2.70;;;;;;;31.88;46.42;101174.44;10509863;28;20040;-79
2023/08/14 10:53:13;;;;;;;7.28;2.70;;;;;;;32.48;49.29;101167.72;10527762;28;20040;-78
2023/08/14 10:58:29;;;;;;;;;;;;;;;32.62;58.68;101162.63;10492748;28;20119;-78
2023/08/14 11:03:30;;;;;;;4.85;2.22;;;;;;;32.23;45.53;101152.41;10509970;28;19920;-79
2023/08/14 11:08:31;;;;;;;5.95;1.75;;;;;;;32.05;54.91;101160.31;10491950;28;20044;-79
2023/08/14 11:13:31;;;;;;;;;;;;;;;32.28;46.49;101165.75;10508905;28;20503;-79
2023/08/14 11:18:32;;;;;;;4.27;1.60;;;;;;;32.73;48.64;101162.19;10509069;28;19920;-78
2023/08/14 11:23:33;;;;;;;;;;;;;;;32.62;50.44;101169.88;10475008;28;20084;-78
2023/08/14 11:28:33;;;;;;;6.90;1.93;;;;;;;32.07;52.41;101171.94;10508131;28;20376;-77
2023/08/14 11:33:34;;;;;;;8.32;2.30;;;;;;;31.70;54.36;101169.69;10507242;28;20071;-78
2023/08/14 11:38:34;;;;;;;6.45;2.08;;;;;;;31.83;51.08;101164.75;10508478;28;20064;-79
2023/08/14 11:43:38;;;;;;;5.15;2.55;;;;;;;32.10;49.47;101152.00;10524272;28;20101;-79
2023/08/14 11:48:38;;;;;;;3.80;1.55;;;;;;;32.80;48.82;101150.16;10492811;28;20041;-79
2023/08/14 11:53:39;;;;;;;;;;;;;;;33.05;45.67;101143.72;10520225;28;20484;-79
2023/08/14 11:58:39;;;;;;;3.70;1.63;;;;;;;32.88;45.06;101140.84;10527171;28;19928;-79
2023/08/14 12:03:40;;;;;;;;;;;;;;;32.98;49.24;101146.78;10520891;28;20054;-81
2023/08/14 12:08:41;;;;;;;8.20;2.00;;;;;;;32.73;42.32;101140.50;10511556;28;19920;-77
2023/08/14 12:13:48;;;;;;;4.90;2.00;;;;;;;32.80;44.55;101131.19;10527095;28;20040;-79
2023/08/14 12:18:49;;;;;;;5.47;2.17;;;;;;;32.97;43.92;101120.63;10505984;28;21783;-78
2023/08/14 12:23:52;;;;;;;;;;;;;;;33.09;44.84;101117.38;10509595;28;20044;-80
2023/08/14 12:28:53;;;;;;;5.18;1.80;;;;;;;32.11;48.30;101110.44;10495659;28;19920;-79
2023/08/14 12:33:53;;;;;;;10.50;2.30;;;;;;;31.89;63.03;101096.88;10507423;28;20044;-79
2023/08/14 12:38:54;;;;;;;4.63;1.90;;;;;;;32.31;50.35;101085.34;10524762;28;20066;-79
2023/08/14 12:43:54;;;;;;;4.63;2.50;;;;;;;32.46;48.00;101080.25;10504089;28;20119;-78
2023/08/14 12:48:55;;;;;;;6.85;2.13;;;;;;;32.74;52.48;101082.66;10490052;28;20468;-79
2023/08/14 12:53:55;;;;;;;5.70;2.13;;;;;;;32.85;51.29;101065.06;10504741;28;20056;-78
2023/08/14 12:58:56;;;;;;;;;;;;;;;32.99;50.85;101046.41;10524452;28;20512;-80
2023/08/14 13:03:57;;;;;;;10.70;2.60;;;;;;;32.16;59.66;101038.06;10490298;28;19973;-80
2023/08/14 13:08:57;;;;;;;;;;;;;;;32.30;58.42;101032.13;10508141;28;20040;-80
2023/08/14 13:13:58;;;;;;;7.40;2.83;;;;;;;32.56;57.54;101026.56;10530674;28;20561;-80
2023/08/14 13:18:58;;;;;;;;;;;;;;;33.15;59.51;101034.88;10493656;28;20072;-80
2023/08/14 13:23:59;;;;;;;5.97;2.33;;;;;;;32.98;58.41;101025.69;10512781;28;19924;-79
2023/08/14 13:28:59;;;;;;;;;;;;;;;33.19;62.24;101015.72;10521490;28;20032;-80
2023/08/14 13:33:59;;;;;;;6.30;2.13;;;;;;;32.94;62.74;100999.66;10530664;28;19974;-80
2023/08/14 13:39:00;;;;;;;;;;;;;;;33.13;56.35;100993.41;10515209;28;20058;-82
2023/08/14 13:44:00;;;;;;;12.23;2.73;;;;;;;33.27;60.36;100992.78;10528635;28;19930;-81
2023/08/14 13:49:02;;;;;;;;;;;;;;;33.16;56.79;100993.28;10527115;28;20460;-80
2023/08/14 13:54:03;;;;;;;5.03;2.55;;;;;;;31.67;62.88;100986.75;10529440;28;19924;-79
2023/08/14 13:59:04;;;;;;;10.00;3.90;;;;;;;29.57;73.57;100993.81;10529331;28;20044;-79
2023/08/14 14:04:04;;;;;;;12.70;2.75;;;;;;;27.99;100.00;100973.66;10530174;28;20074;-79
2023/08/14 14:09:05;;;;;;;6.00;2.53;;;;;;;29.70;100.00;100975.47;10523050;28;20056;-76
2023/08/14 14:14:05;;;;;;;6.87;2.70;;;;;;;31.01;74.34;100963.06;10525942;28;20323;-78
2023/08/14 14:19:06;;;;;;;12.02;2.70;;;;;;;31.66;72.69;100948.94;10508573;28;20108;-79
2023/08/14 14:24:07;;;;;;;5.43;2.53;;;;;;;31.82;67.67;100963.66;10515667;28;20060;-79
2023/08/14 14:29:07;;;;;;;19.70;11.40;;;;;;;31.67;64.28;100948.91;10515741;28;20061;-78
2023/08/14 14:34:08;;;;;;;7.57;2.40;;;;;;;31.96;71.70;100956.78;10518783;28;20044;-79
2023/08/14 14:39:10;;;;;;;;;;;;;;;32.76;66.28;100956.13;10517275;28;20094;-79
2023/08/14 14:44:10;;;;;;;5.53;2.30;;;;;;;32.16;73.25;100964.09;10527165;28;19920;-79
2023/08/14 14:49:10;;;;;;;;;;;;;;;31.92;70.16;100954.22;10528479;28;20060;-79
2023/08/14 14:54:11;;;;;;;5.60;2.87;;;;;;;32.25;69.95;100952.91;10526093;28;20375;-79
2023/08/14 14:59:11;;;;;;;;;;;;;;;31.81;73.60;100967.28;10526683;28;20040;-78
2023/08/14 15:04:12;;;;;;;3.93;1.70;;;;;;;31.52;73.74;100973.84;10524706;28;19924;-78
2023/08/14 15:09:13;;;;;;;;;;;;;;;31.41;78.63;100975.13;10521054;28;20036;-81
2023/08/14 15:14:13;;;;;;;8.33;2.80;;;;;;;31.00;91.34;100967.59;10523751;28;19922;-80
2023/08/14 15:19:14;;;;;;;10.52;3.83;;;;;;;30.61;85.32;100979.78;10521210;28;20040;-79
2023/08/14 15:24:15;;;;;;;7.97;3.15;;;;;;;30.50;83.12;100971.13;10522360;28;20039;-78
2023/08/14 15:29:16;;;;;;;5.57;2.88;;;;;;;30.34;86.35;100981.53;10519278;28;20105;-79
2023/08/14 15:34:16;;;;;;;8.00;2.50;;;;;;;30.07;91.28;100965.34;10522846;28;20047;-79
2023/08/14 15:39:17;;;;;;;7.63;2.50;;;;;;;29.52;100.00;100968.78;10519454;28;20165;-79
2023/08/14 15:44:17;;;;;;;5.07;2.40;;;;;;;28.27;100.00;100973.03;10524892;28;20062;-78
2023/08/14 15:49:18;;;;;;;5.87;2.73;;;;;;;27.69;100.00;100958.22;10519676;28;20122;-78
2023/08/14 15:54:18;;;;;;;13.10;4.00;;;;;;;26.92;100.00;100944.53;10525972;28;20046;-79
2023/08/14 15:59:19;;;;;;;9.07;3.87;;;;;;;26.12;100.00;100905.63;10516315;28;20144;-78
2023/08/14 16:04:19;;;;;;;11.67;3.60;;;;;;;25.74;100.00;100868.69;10522993;28;20040;-78
2023/08/14 16:09:20;;;;;;;9.10;3.67;;;;;;;25.40;100.00;100837.03;10488351;28;20044;-78
2023/08/14 16:14:20;;;;;;;7.13;3.37;;;;;;;25.03;100.00;100838.44;10512799;28;20065;-78
2023/08/14 16:19:21;;;;;;;11.43;3.63;;;;;;;24.64;100.00;100832.63;10521359;28;20040;-78
2023/08/14 16:24:21;;;;;;;10.43;4.13;;;;;;;24.33;100.00;100817.78;10524413;28;20557;-78
2023/08/14 16:29:23;;;;;;;9.33;3.00;;;;;;;24.08;100.00;100810.91;10522589;28;20039;-78
2023/08/14 16:34:23;;;;;;;8.82;4.32;;;;;;;23.79;100.00;100814.69;10523198;28;20105;-79
2023/08/14 16:39:24;;;;;;;9.03;3.70;;;;;;;23.75;100.00;100813.84;10525430;28;20166;-79
2023/08/14 16:44:24;;;;;;;7.93;3.00;;;;;;;23.91;100.00;100822.59;10524408;28;20036;-81
2023/08/14 16:49:25;;;;;;;9.10;5.27;;;;;;;24.29;100.00;100825.88;10536603;28;20036;-80
2023/08/14 16:54:25;;;;;;;10.00;4.87;;;;;;;24.68;100.00;100822.75;10530380;28;20046;-80
2023/08/14 16:59:26;;;;;;;8.53;3.77;;;;;;;24.60;100.00;100831.75;10530212;28;20119;-80
2023/08/14 17:04:26;;;;;;;8.50;3.17;;;;;;;24.40;100.00;100823.06;10531633;28;20031;-80
2023/08/14 17:09:27;;;;;;;9.07;4.40;;;;;;;24.12;100.00;100818.91;10528486;28;20146;-80
2023/08/14 17:14:27;;;;;;;11.43;3.37;;;;;;;23.73;100.00;100834.34;10515694;28;20047;-80
2023/08/14 17:19:28;;;;;;;10.80;4.73;;;;;;;23.41;100.00;100824.75;10524530;28;20412;-79
2023/08/14 17:24:28;;;;;;;7.30;3.90;;;;;;;23.17;100.00;100830.19;10537147;28;20040;-80
2023/08/14 17:29:29;;;;;;;11.13;4.77;;;;;;;23.07;100.00;100848.94;10531174;28;20036;-79
2023/08/14 17:34:29;;;;;;;8.97;4.47;;;;;;;23.09;100.00;100845.34;10528238;28;20880;-79
2023/08/14 17:39:30;;;;;;;8.50;2.87;;;;;;;23.04;100.00;100852.47;10530569;28;20361;-79
2023/08/14 17:44:30;;;;;;;14.43;4.20;;;;;;;22.88;100.00;100865.00;10527937;28;20044;-79
2023/08/14 17:49:31;;;;;;;10.13;3.30;;;;;;;22.71;100.00;100865.97;10529000;28;20123;-79
2023/08/14 17:54:31;;;;;;;16.67;5.00;;;;;;;22.61;100.00;100888.22;10528802;28;20476;-79
2023/08/14 17:59:32;;;;;;;13.40;4.70;;;;;;;22.61;100.00;100893.53;10528074;28;20070;-79
2023/08/14 18:04:33;;;;;;;19.70;5.27;;;;;;;22.47;100.00;100898.88;10529515;28;20479;-80
2023/08/14 18:09:33;;;;;;;7.93;4.37;;;;;;;22.34;100.00;100897.09;10528243;28;20048;-80
2023/08/14 18:14:34;;;;;;;14.73;5.23;;;;;;;22.23;100.00;100910.44;10489012;28;20175;-79
2023/08/14 18:19:34;;;;;;;17.20;3.93;;;;;;;22.13;100.00;100926.41;10502233;28;20039;-79
2023/08/14 18:24:35;;;;;;;14.67;4.67;;;;;;;22.14;100.00;100937.94;10510950;28;20041;-80
2023/08/14 18:29:36;;;;;;;12.30;4.88;;;;;;;21.95;100.00;100931.72;10500187;28;20040;-79
2023/08/14 18:34:39;;;;;;;15.10;7.07;;;;;;;21.71;100.00;100941.44;10507134;28;20123;-78
2023/08/14 18:39:39;;;;;;;7.03;4.93;;;;;;;21.58;100.00;100955.56;10531605;28;20119;-79
2023/08/14 18:44:40;;;;;;;7.40;4.80;;;;;;;21.39;100.00;100948.38;10518847;28;20123;-79
2023/08/14 18:49:45;;;;;;;27.87;18.37;;;;;;;21.24;100.00;100961.63;10524966;28;20139;-80
2023/08/14 18:54:46;;;;;;;14.07;7.55;;;;;;;21.19;100.00;100971.34;10526049;28;20024;-80
2023/08/14 18:59:47;;;;;;;12.63;6.30;;;;;;;21.18;100.00;100982.88;10505618;28;20050;-79
2023/08/14 19:04:47;;;;;;;17.93;6.37;;;;;;;21.12;100.00;100994.41;10522100;28;20040;-80
2023/08/14 19:09:48;;;;;;;13.67;6.40;;;;;;;21.06;100.00;100994.34;10522585;28;20048;-79
2023/08/14 19:14:48;;;;;;;10.53;7.47;;;;;;;20.94;100.00;100985.41;10518126;28;20127;-80
2023/08/14 19:19:49;;;;;;;15.73;9.80;;;;;;;20.81;100.00;101008.38;10522202;28;20400;-83
2023/08/14 19:24:49;;;;;;;10.30;6.63;;;;;;;20.73;100.00;101018.03;10522244;28;20181;-83
2023/08/14 19:29:50;;;;;;;13.37;7.23;;;;;;;20.66;100.00;101017.09;10504627;28;20051;-82
2023/08/14 19:34:50;;;;;;;12.30;6.93;;;;;;;20.62;100.00;101031.25;10518529;28;20134;-81
2023/08/14 19:39:54;;;;;;;13.23;6.80;;;;;;;20.62;100.00;101028.59;10492284;28;20052;-79
2023/08/14 19:44:54;;;;;;;21.90;8.70;;;;;;;20.60;100.00;101034.75;10506901;28;20380;-80
2023/08/14 19:49:55;;;;;;;14.53;9.53;;;;;;;20.58;100.00;101037.41;10510100;28;20052;-79
2023/08/14 19:54:55;;;;;;;15.00;8.27;;;;;;;20.57;100.00;101040.94;10502499;28;20387;-79
2023/08/14 19:59:56;;;;;;;20.83;7.47;;;;;;;20.53;100.00;101039.13;10489573;28;20101;-83
2023/08/14 20:04:56;;;;;;;12.90;8.93;;;;;;;20.47;100.00;101047.94;10523623;28;20480;-79
2023/08/14 20:09:57;;;;;;;20.53;10.70;;;;;;;20.45;100.00;101044.34;10521544;28;20032;-80
2023/08/14 20:14:58;;;;;;;19.87;11.10;;;;;;;20.42;100.00;101043.47;10506082;28;20047;-80
2023/08/14 20:19:58;;;;;;;14.20;10.70;;;;;;;20.32;100.00;101034.47;10508642;28;20089;-80
2023/08/14 20:24:59;;;;;;;20.13;11.83;;;;;;;20.25;100.00;101038.88;10517165;28;20041;-78
2023/08/14 20:30:00;;;;;;;17.48;10.25;;;;;;;20.22;100.00;101044.16;10513225;28;20079;-81
2023/08/14 20:35:03;;;;;;;14.73;8.97;;;;;;;20.16;100.00;101036.09;10523134;28;20040;-82
2023/08/14 20:40:05;;;;;;;16.35;11.80;;;;;;;20.14;100.00;101043.16;10520917;28;20143;-79
2023/08/14 20:45:06;;;;;;;18.87;12.23;;;;;;;20.10;100.00;101043.13;10501486;28;20047;-79
2023/08/14 20:50:06;;;;;;;24.47;11.00;;;;;;;20.08;100.00;101067.88;10521358;28;20507;-79
2023/08/14 20:55:07;;;;;;;16.93;11.60;;;;;;;20.03;100.00;101081.13;10505912;28;20063;-79
2023/08/14 21:00:09;;;;;;;11.73;10.00;;;;;;;19.94;100.00;101078.38;10513855;28;20509;-78
2023/08/14 21:05:09;;;;;;;19.27;10.07;;;;;;;19.77;100.00;101094.94;10521446;28;20048;-78
2023/08/14 21:10:10;;;;;;;21.37;10.03;;;;;;;19.50;100.00;101082.16;10514041;28;20043;-77
2023/08/14 21:15:10;;;;;;;16.23;10.43;;;;;;;19.24;100.00;101090.63;10512273;28;20050;-79
2023/08/14 21:20:11;;;;;;;17.20;9.98;;;;;;;19.06;100.00;101093.91;10497722;28;20118;-77
2023/08/14 21:25:12;;;;;;;19.52;12.02;;;;;;;18.90;100.00;101096.25;10522857;28;20051;-77
2023/08/14 21:30:13;;;;;;;17.10;10.80;;;;;;;18.81;100.00;101100.50;10521142;28;20103;-78
2023/08/14 21:35:14;;;;;;;20.45;12.55;;;;;;;18.67;100.00;101089.66;10505493;28;20039;-77
2023/08/14 21:40:15;;;;;;;21.87;9.87;;;;;;;18.56;100.00;101089.47;10510265;28;20040;-79
2023/08/14 21:45:17;;;;;;;29.88;14.10;;;;;;;18.49;100.00;101078.75;10461956;28;20036;-77
2023/08/14 21:50:21;;;;;;;16.20;12.57;;;;;;;18.46;100.00;101088.41;10515323;28;20033;-77
2023/08/14 21:55:22;;;;;;;20.48;12.43;;;;;;;18.40;100.00;101090.94;10510018;28;20123;-77
2023/08/14 22:00:23;;;;;;;19.42;13.05;;;;;;;18.32;100.00;101086.41;10524750;28;20040;-77
2023/08/14 22:05:25;;;;;;;17.02;13.15;;;;;;;18.26;100.00;101080.97;10517385;28;20488;-77
2023/08/14 22:10:26;;;;;;;25.60;13.98;;;;;;;18.21;100.00;101074.69;10516123;28;20055;-76
2023/08/14 22:15:27;;;;;;;28.98;14.82;;;;;;;18.12;100.00;101072.75;10525893;28;20039;-76
2023/08/14 22:20:27;;;;;;;21.10;13.65;;;;;;;18.07;100.00;101066.47;10512050;27;20048;-76
2023/08/14 22:25:28;;;;;;;28.15;16.23;;;;;;;17.96;100.00;101066.22;10537074;28;20044;-76
2023/08/14 22:30:29;;;;;;;22.88;15.38;;;;;;;17.88;100.00;101060.75;10541210;27;20048;-76
2023/08/14 22:35:31;;;;;;;17.20;13.27;;;;;;;17.82;100.00;101060.63;10532266;28;20096;-76
2023/08/14 22:40:33;;;;;;;20.35;16.30;;;;;;;17.80;100.00;101061.47;10511915;28;20135;-75
2023/08/14 22:45:35;;;;;;;20.73;15.52;;;;;;;17.76;100.00;101056.13;10527447;28;20547;-76